sensor_id;sensor_type;location;lat;lon;timestamp;pressure;altitude;pressure_sealevel;temperature;humidity
42727;BME280;28372;56.832;60.658;2023-04-22T00:00:02;97408.28;;;8.56;70.68
42727;BME280;28372;56.832;60.658;2023-04-22T00:02:34;97402.53;;;8.57;69.32
42727;BME280;28372;56.832;60.658;2023-04-22T00:05:04;97409.09;;;8.60;70.62
42727;BME280;28372;56.832;60.658;2023-04-22T00:07:33;97402.09;;;8.55;69.83
42727;BME280;28372;56.832;60.658;2023-04-22T00:10:01;97404.72;;;8.48;69.60
42727;BME280;28372;56.832;60.658;2023-04-22T00:12:28;97403.59;;;8.49;71.45
42727;BME280;28372;56.832;60.658;2023-04-22T00:14:56;97403.63;;;8.53;70.60
42727;BME280;28372;56.832;60.658;2023-04-22T00:17:24;97402.91;;;8.56;70.17
42727;BME280;28372;56.832;60.658;2023-04-22T00:19:51;97397.50;;;8.56;70.58
42727;BME280;28372;56.832;60.658;2023-04-22T00:22:19;97401.84;;;8.64;69.41
42727;BME280;28372;56.832;60.658;2023-04-22T00:24:46;97404.94;;;8.66;68.72
42727;BME280;28372;56.832;60.658;2023-04-22T00:27:14;97400.34;;;8.70;69.28
42727;BME280;28372;56.832;60.658;2023-04-22T00:29:41;97406.16;;;8.72;69.20
42727;BME280;28372;56.832;60.658;2023-04-22T00:32:09;97405.00;;;8.73;67.71
42727;BME280;28372;56.832;60.658;2023-04-22T00:34:36;97411.97;;;8.74;67.66
42727;BME280;28372;56.832;60.658;2023-04-22T00:37:04;97413.00;;;8.63;66.62
42727;BME280;28372;56.832;60.658;2023-04-22T00:39:32;97411.09;;;8.67;68.38
42727;BME280;28372;56.832;60.658;2023-04-22T00:42:00;97412.31;;;8.73;69.26
42727;BME280;28372;56.832;60.658;2023-04-22T00:44:28;97413.53;;;8.76;69.04
42727;BME280;28372;56.832;60.658;2023-04-22T00:46:56;97405.06;;;8.81;68.05
42727;BME280;28372;56.832;60.658;2023-04-22T00:49:26;97410.56;;;8.88;69.15
42727;BME280;28372;56.832;60.658;2023-04-22T00:51:53;97406.28;;;8.83;68.26
42727;BME280;28372;56.832;60.658;2023-04-22T00:54:21;97414.03;;;8.88;67.79
42727;BME280;28372;56.832;60.658;2023-04-22T00:56:49;97421.75;;;8.90;67.86
42727;BME280;28372;56.832;60.658;2023-04-22T00:59:17;97410.22;;;8.93;67.59
42727;BME280;28372;56.832;60.658;2023-04-22T01:01:45;97414.53;;;8.98;67.67
42727;BME280;28372;56.832;60.658;2023-04-22T01:04:13;97409.84;;;8.95;66.60
42727;BME280;28372;56.832;60.658;2023-04-22T01:06:43;97417.22;;;8.98;66.65
42727;BME280;28372;56.832;60.658;2023-04-22T01:09:11;97417.22;;;8.98;66.56
42727;BME280;28372;56.832;60.658;2023-04-22T01:11:39;97421.53;;;9.06;66.98
42727;BME280;28372;56.832;60.658;2023-04-22T01:14:07;97407.34;;;9.13;67.64
42727;BME280;28372;56.832;60.658;2023-04-22T01:16:34;97415.47;;;9.16;67.66
42727;BME280;28372;56.832;60.658;2023-04-22T01:19:05;97415.13;;;9.21;66.89
42727;BME280;28372;56.832;60.658;2023-04-22T01:21:34;97415.16;;;9.25;65.90
42727;BME280;28372;56.832;60.658;2023-04-22T01:24:02;97416.34;;;9.28;65.45
42727;BME280;28372;56.832;60.658;2023-04-22T01:26:30;97427.97;;;9.32;65.48
42727;BME280;28372;56.832;60.658;2023-04-22T01:29:00;97422.25;;;9.40;65.52
42727;BME280;28372;56.832;60.658;2023-04-22T01:31:28;97417.97;;;9.39;64.83
42727;BME280;28372;56.832;60.658;2023-04-22T01:33:57;97422.69;;;9.46;64.26
42727;BME280;28372;56.832;60.658;2023-04-22T01:36:26;97416.13;;;9.47;63.72
42727;BME280;28372;56.832;60.658;2023-04-22T01:38:54;97420.78;;;9.50;63.48
42727;BME280;28372;56.832;60.658;2023-04-22T01:41:25;97414.25;;;9.55;63.76
42727;BME280;28372;56.832;60.658;2023-04-22T01:43:53;97426.63;;;9.56;63.91
42727;BME280;28372;56.832;60.658;2023-04-22T01:46:22;97427.81;;;9.62;63.91
42727;BME280;28372;56.832;60.658;2023-04-22T01:48:50;97418.56;;;9.59;63.29
42727;BME280;28372;56.832;60.658;2023-04-22T01:51:20;97416.66;;;9.67;63.06
42727;BME280;28372;56.832;60.658;2023-04-22T01:53:48;97417.09;;;9.73;62.80
42727;BME280;28372;56.832;60.658;2023-04-22T01:56:16;97414.44;;;9.76;62.46
42727;BME280;28372;56.832;60.658;2023-04-22T01:58:44;97418.69;;;9.81;61.34
42727;BME280;28372;56.832;60.658;2023-04-22T02:01:13;97417.56;;;9.86;61.16
42727;BME280;28372;56.832;60.658;2023-04-22T02:03:40;97416.03;;;9.88;60.77
42727;BME280;28372;56.832;60.658;2023-04-22T02:06:10;97424.94;;;9.92;60.51
42727;BME280;28372;56.832;60.658;2023-04-22T02:08:37;97424.22;;;9.99;60.57
42727;BME280;28372;56.832;60.658;2023-04-22T02:11:05;97428.13;;;10.05;59.03
42727;BME280;28372;56.832;60.658;2023-04-22T02:13:36;97429.00;;;10.20;57.34
42727;BME280;28372;56.832;60.658;2023-04-22T02:16:04;97440.94;;;10.19;56.57
42727;BME280;28372;56.832;60.658;2023-04-22T02:18:32;97432.84;;;10.16;57.33
42727;BME280;28372;56.832;60.658;2023-04-22T02:21:00;97442.09;;;10.18;57.72
42727;BME280;28372;56.832;60.658;2023-04-22T02:23:28;97442.50;;;10.24;56.24
42727;BME280;28372;56.832;60.658;2023-04-22T02:25:55;97438.66;;;10.25;56.36
42727;BME280;28372;56.832;60.658;2023-04-22T02:28:23;97439.06;;;10.27;56.69
42727;BME280;28372;56.832;60.658;2023-04-22T02:30:50;97444.09;;;10.32;56.27
42727;BME280;28372;56.832;60.658;2023-04-22T02:33:19;97444.94;;;10.36;54.84
42727;BME280;28372;56.832;60.658;2023-04-22T02:35:47;97436.44;;;10.38;54.46
42727;BME280;28372;56.832;60.658;2023-04-22T02:38:18;97446.47;;;10.37;55.43
42727;BME280;28372;56.832;60.658;2023-04-22T02:40:46;97450.38;;;10.40;54.73
42727;BME280;28372;56.832;60.658;2023-04-22T02:43:13;97449.97;;;10.41;53.92
42727;BME280;28372;56.832;60.658;2023-04-22T02:45:41;97449.97;;;10.41;54.33
42727;BME280;28372;56.832;60.658;2023-04-22T02:48:09;97442.19;;;10.33;55.81
42727;BME280;28372;56.832;60.658;2023-04-22T02:50:36;97444.47;;;10.27;56.52
42727;BME280;28372;56.832;60.658;2023-04-22T02:53:04;97454.13;;;10.28;56.38
42727;BME280;28372;56.832;60.658;2023-04-22T02:55:32;97451.06;;;10.29;55.45
42727;BME280;28372;56.832;60.658;2023-04-22T02:58:00;97447.25;;;10.34;55.25
42727;BME280;28372;56.832;60.658;2023-04-22T03:00:28;97455.78;;;10.43;55.28
42727;BME280;28372;56.832;60.658;2023-04-22T03:02:55;97443.81;;;10.41;54.67
42727;BME280;28372;56.832;60.658;2023-04-22T03:05:32;97450.44;;;10.51;53.66
42727;BME280;28372;56.832;60.658;2023-04-22T03:08:01;97458.91;;;10.53;53.71
42727;BME280;28372;56.832;60.658;2023-04-22T03:10:29;97463.22;;;10.61;53.39
42727;BME280;28372;56.832;60.658;2023-04-22T03:12:58;97456.66;;;10.62;53.06
42727;BME280;28372;56.832;60.658;2023-04-22T03:15:26;97454.72;;;10.62;53.43
42727;BME280;28372;56.832;60.658;2023-04-22T03:17:54;97462.41;;;10.57;54.82
42727;BME280;28372;56.832;60.658;2023-04-22T03:20:22;97454.69;;;10.55;54.79
42727;BME280;28372;56.832;60.658;2023-04-22T03:22:50;97450.78;;;10.49;55.66
42727;BME280;28372;56.832;60.658;2023-04-22T03:25:18;97456.59;;;10.51;56.05
42727;BME280;28372;56.832;60.658;2023-04-22T03:27:52;97460.88;;;10.56;56.75
42727;BME280;28372;56.832;60.658;2023-04-22T03:30:19;97462.03;;;10.58;55.16
42727;BME280;28372;56.832;60.658;2023-04-22T03:32:47;97463.59;;;10.59;56.05
42727;BME280;28372;56.832;60.658;2023-04-22T03:35:20;97462.19;;;10.94;54.60
42727;BME280;28372;56.832;60.658;2023-04-22T03:37:50;97455.53;;;10.74;56.24
42727;BME280;28372;56.832;60.658;2023-04-22T03:40:22;97452.44;;;10.75;57.12
42727;BME280;28372;56.832;60.658;2023-04-22T03:42:50;97450.94;;;10.82;57.25
42727;BME280;28372;56.832;60.658;2023-04-22T03:45:52;97445.19;;;11.05;57.88
42727;BME280;28372;56.832;60.658;2023-04-22T03:48:35;97438.59;;;10.95;57.10
42727;BME280;28372;56.832;60.658;2023-04-22T03:51:09;97449.84;;;11.15;56.69
42727;BME280;28372;56.832;60.658;2023-04-22T03:53:39;97450.66;;;11.30;56.18
42727;BME280;28372;56.832;60.658;2023-04-22T03:56:08;97450.28;;;11.39;55.63
42727;BME280;28372;56.832;60.658;2023-04-22T03:58:42;97442.97;;;11.54;55.48
42727;BME280;28372;56.832;60.658;2023-04-22T04:01:10;97450.72;;;11.66;54.84
42727;BME280;28372;56.832;60.658;2023-04-22T04:03:40;97450.69;;;11.80;54.43
42727;BME280;28372;56.832;60.658;2023-04-22T04:06:08;97455.72;;;11.93;53.78
42727;BME280;28372;56.832;60.658;2023-04-22T04:08:36;97455.38;;;12.05;53.29
42727;BME280;28372;56.832;60.658;2023-04-22T04:11:04;97454.56;;;12.15;52.89
42727;BME280;28372;56.832;60.658;2023-04-22T04:13:32;97454.94;;;12.25;52.48
42727;BME280;28372;56.832;60.658;2023-04-22T04:16:20;97446.00;;;12.35;52.32
42727;BME280;28372;56.832;60.658;2023-04-22T04:18:53;97448.69;;;12.46;52.57
42727;BME280;28372;56.832;60.658;2023-04-22T04:21:23;97459.91;;;12.59;52.18
42727;BME280;28372;56.832;60.658;2023-04-22T04:23:54;97455.19;;;12.70;51.67
42727;BME280;28372;56.832;60.658;2023-04-22T04:26:26;97449.34;;;12.79;51.68
42727;BME280;28372;56.832;60.658;2023-04-22T04:29:01;97450.81;;;12.94;51.24
42727;BME280;28372;56.832;60.658;2023-04-22T04:31:29;97453.09;;;13.03;50.63
42727;BME280;28372;56.832;60.658;2023-04-22T04:33:58;97453.84;;;13.14;50.44
42727;BME280;28372;56.832;60.658;2023-04-22T04:36:26;97457.28;;;13.26;49.93
42727;BME280;28372;56.832;60.658;2023-04-22T04:39:05;97454.91;;;13.35;49.69
42727;BME280;28372;56.832;60.658;2023-04-22T04:41:36;97449.81;;;13.44;49.60
42727;BME280;28372;56.832;60.658;2023-04-22T04:44:06;97451.69;;;13.51;48.78
42727;BME280;28372;56.832;60.658;2023-04-22T04:46:36;97451.25;;;13.60;48.67
42727;BME280;28372;56.832;60.658;2023-04-22T04:49:06;97451.19;;;13.67;48.70
42727;BME280;28372;56.832;60.658;2023-04-22T04:51:44;97452.28;;;13.77;48.52
42727;BME280;28372;56.832;60.658;2023-04-22T04:54:12;97446.00;;;13.83;48.37
42727;BME280;28372;56.832;60.658;2023-04-22T04:56:40;97452.94;;;13.92;47.84
42727;BME280;28372;56.832;60.658;2023-04-22T04:59:09;97448.19;;;13.99;47.15
42727;BME280;28372;56.832;60.658;2023-04-22T05:01:38;97452.06;;;14.02;45.97
42727;BME280;28372;56.832;60.658;2023-04-22T05:04:10;97442.25;;;14.12;45.42
42727;BME280;28372;56.832;60.658;2023-04-22T05:06:40;97442.22;;;14.15;45.71
42727;BME280;28372;56.832;60.658;2023-04-22T05:09:08;97440.97;;;14.23;45.65
42727;BME280;28372;56.832;60.658;2023-04-22T05:11:36;97441.69;;;14.28;45.87
42727;BME280;28372;56.832;60.658;2023-04-22T05:14:11;97444.34;;;14.35;45.42
42727;BME280;28372;56.832;60.658;2023-04-22T05:16:41;97446.63;;;14.40;45.82
42727;BME280;28372;56.832;60.658;2023-04-22T05:19:09;97438.44;;;14.44;45.39
42727;BME280;28372;56.832;60.658;2023-04-22T05:21:36;97444.56;;;14.51;46.07
42727;BME280;28372;56.832;60.658;2023-04-22T05:24:04;97446.78;;;14.60;46.03
42727;BME280;28372;56.832;60.658;2023-04-22T05:26:32;97439.78;;;14.63;45.38
42727;BME280;28372;56.832;60.658;2023-04-22T05:29:04;97448.28;;;14.68;44.65
42727;BME280;28372;56.832;60.658;2023-04-22T05:31:33;97442.84;;;14.68;44.40
42727;BME280;28372;56.832;60.658;2023-04-22T05:34:00;97444.44;;;14.66;44.70
42727;BME280;28372;56.832;60.658;2023-04-22T05:36:28;97444.38;;;14.69;44.83
42727;BME280;28372;56.832;60.658;2023-04-22T05:38:58;97442.84;;;14.68;44.69
42727;BME280;28372;56.832;60.658;2023-04-22T05:41:27;97440.94;;;14.65;45.41
42727;BME280;28372;56.832;60.658;2023-04-22T05:43:56;97435.47;;;14.69;45.15
42727;BME280;28372;56.832;60.658;2023-04-22T05:46:24;97434.63;;;14.72;44.03
42727;BME280;28372;56.832;60.658;2023-04-22T05:48:53;97434.63;;;14.72;44.35
42727;BME280;28372;56.832;60.658;2023-04-22T05:51:57;97431.09;;;14.75;44.16
42727;BME280;28372;56.832;60.658;2023-04-22T05:54:31;97426.41;;;14.76;44.57
42727;BME280;28372;56.832;60.658;2023-04-22T05:56:59;97431.06;;;14.79;44.70
42727;BME280;28372;56.832;60.658;2023-04-22T05:59:26;97423.63;;;14.83;44.91
42727;BME280;28372;56.832;60.658;2023-04-22T06:01:54;97426.38;;;14.79;45.12
42727;BME280;28372;56.832;60.658;2023-04-22T06:04:23;97422.84;;;14.82;45.21
42727;BME280;28372;56.832;60.658;2023-04-22T06:06:51;97425.56;;;14.82;45.25
42727;BME280;28372;56.832;60.658;2023-04-22T06:09:22;97434.44;;;14.86;45.24
42727;BME280;28372;56.832;60.658;2023-04-22T06:11:50;97424.03;;;14.81;45.28
42727;BME280;28372;56.832;60.658;2023-04-22T06:14:17;97426.03;;;14.77;45.53
42727;BME280;28372;56.832;60.658;2023-04-22T06:16:46;97422.59;;;14.73;45.05
42727;BME280;28372;56.832;60.658;2023-04-22T06:19:13;97421.22;;;14.54;45.44
42727;BME280;28372;56.832;60.658;2023-04-22T06:21:41;97422.88;;;14.44;45.84
42727;BME280;28372;56.832;60.658;2023-04-22T06:24:09;97429.25;;;14.30;46.37
42727;BME280;28372;56.832;60.658;2023-04-22T06:26:37;97426.28;;;14.14;45.88
42727;BME280;28372;56.832;60.658;2023-04-22T06:29:04;97424.28;;;14.21;46.05
42727;BME280;28372;56.832;60.658;2023-04-22T06:31:33;97431.47;;;14.01;47.08
42727;BME280;28372;56.832;60.658;2023-04-22T06:34:01;97412.78;;;14.07;44.80
42727;BME280;28372;56.832;60.658;2023-04-22T06:36:29;97415.38;;;14.21;44.35
42727;BME280;28372;56.832;60.658;2023-04-22T06:39:01;97416.81;;;14.29;42.71
42727;BME280;28372;56.832;60.658;2023-04-22T06:41:51;97408.84;;;14.49;42.65
42727;BME280;28372;56.832;60.658;2023-04-22T06:44:30;97404.59;;;14.79;41.48
42727;BME280;28372;56.832;60.658;2023-04-22T06:47:16;97414.66;;;14.82;40.63
42727;BME280;28372;56.832;60.658;2023-04-22T06:50:00;97420.38;;;14.57;41.83
42727;BME280;28372;56.832;60.658;2023-04-22T06:52:34;97416.31;;;14.76;41.47
42727;BME280;28372;56.832;60.658;2023-04-22T06:55:02;97422.06;;;14.82;41.63
42727;BME280;28372;56.832;60.658;2023-04-22T06:57:31;97419.97;;;14.93;40.81
42727;BME280;28372;56.832;60.658;2023-04-22T06:59:58;97421.78;;;15.03;40.07
42727;BME280;28372;56.832;60.658;2023-04-22T07:02:26;97422.47;;;15.11;40.37
42727;BME280;28372;56.832;60.658;2023-04-22T07:04:54;97433.59;;;14.59;39.60
42727;BME280;28372;56.832;60.658;2023-04-22T07:07:23;97420.66;;;14.35;40.73
42727;BME280;28372;56.832;60.658;2023-04-22T07:09:51;97430.03;;;14.31;41.43
42727;BME280;28372;56.832;60.658;2023-04-22T07:12:18;97429.50;;;14.05;42.23
42727;BME280;28372;56.832;60.658;2023-04-22T07:14:48;97426.44;;;14.37;41.65
42727;BME280;28372;56.832;60.658;2023-04-22T07:17:15;97435.16;;;13.80;41.74
42727;BME280;28372;56.832;60.658;2023-04-22T07:19:45;97429.97;;;13.47;42.03
42727;BME280;28372;56.832;60.658;2023-04-22T07:22:13;97430.06;;;13.29;42.38
42727;BME280;28372;56.832;60.658;2023-04-22T07:24:40;97428.16;;;13.30;42.77
42727;BME280;28372;56.832;60.658;2023-04-22T07:27:08;97422.75;;;13.23;42.48
42727;BME280;28372;56.832;60.658;2023-04-22T07:29:35;97423.06;;;13.32;42.94
42727;BME280;28372;56.832;60.658;2023-04-22T07:32:03;97425.38;;;13.33;43.49
42727;BME280;28372;56.832;60.658;2023-04-22T07:34:32;97425.50;;;13.15;43.69
42727;BME280;28372;56.832;60.658;2023-04-22T07:37:00;97424.78;;;13.04;43.60
42727;BME280;28372;56.832;60.658;2023-04-22T07:39:28;97421.72;;;12.98;43.41
42727;BME280;28372;56.832;60.658;2023-04-22T07:41:55;97429.63;;;12.67;44.47
42727;BME280;28372;56.832;60.658;2023-04-22T07:44:23;97427.28;;;12.73;43.58
42727;BME280;28372;56.832;60.658;2023-04-22T07:46:50;97428.19;;;12.38;43.90
42727;BME280;28372;56.832;60.658;2023-04-22T07:49:18;97426.28;;;12.13;45.66
42727;BME280;28372;56.832;60.658;2023-04-22T07:51:46;97422.81;;;12.09;45.34
42727;BME280;28372;56.832;60.658;2023-04-22T07:54:13;97425.56;;;12.05;46.44
42727;BME280;28372;56.832;60.658;2023-04-22T07:56:41;97428.25;;;12.09;45.96
42727;BME280;28372;56.832;60.658;2023-04-22T07:59:09;97433.31;;;11.99;45.96
42727;BME280;28372;56.832;60.658;2023-04-22T08:01:36;97425.53;;;11.91;46.29
42727;BME280;28372;56.832;60.658;2023-04-22T08:04:04;97429.78;;;11.92;46.15
42727;BME280;28372;56.832;60.658;2023-04-22T08:06:32;97422.84;;;12.02;46.28
42727;BME280;28372;56.832;60.658;2023-04-22T08:08:59;97429.44;;;12.08;47.19
42727;BME280;28372;56.832;60.658;2023-04-22T08:11:27;97422.44;;;12.10;47.25
42727;BME280;28372;56.832;60.658;2023-04-22T08:13:55;97411.94;;;12.27;47.17
42727;BME280;28372;56.832;60.658;2023-04-22T08:16:22;97411.88;;;12.48;46.67
42727;BME280;28372;56.832;60.658;2023-04-22T08:18:50;97412.91;;;12.76;46.81
42727;BME280;28372;56.832;60.658;2023-04-22T08:21:18;97414.72;;;13.01;46.18
42727;BME280;28372;56.832;60.658;2023-04-22T08:23:45;97410.75;;;13.16;45.63
42727;BME280;28372;56.832;60.658;2023-04-22T08:26:13;97415.38;;;13.23;46.76
42727;BME280;28372;56.832;60.658;2023-04-22T08:28:43;97409.50;;;13.32;45.71
42727;BME280;28372;56.832;60.658;2023-04-22T08:31:10;97409.41;;;13.46;47.86
42727;BME280;28372;56.832;60.658;2023-04-22T08:33:39;97421.41;;;13.52;47.91
42727;BME280;28372;56.832;60.658;2023-04-22T08:36:08;97411.72;;;13.51;46.33
42727;BME280;28372;56.832;60.658;2023-04-22T08:38:37;97410.00;;;13.12;47.95
42727;BME280;28372;56.832;60.658;2023-04-22T08:41:05;97421.97;;;13.22;46.73
42727;BME280;28372;56.832;60.658;2023-04-22T08:43:33;97410.59;;;13.45;47.97
42727;BME280;28372;56.832;60.658;2023-04-22T08:46:01;97421.56;;;13.27;50.05
42727;BME280;28372;56.832;60.658;2023-04-22T08:48:29;97412.72;;;13.12;48.95
42727;BME280;28372;56.832;60.658;2023-04-22T08:50:57;97409.22;;;13.15;49.84
42727;BME280;28372;56.832;60.658;2023-04-22T08:53:24;97411.97;;;13.12;47.57
42727;BME280;28372;56.832;60.658;2023-04-22T08:55:54;97403.78;;;13.19;46.99
42727;BME280;28372;56.832;60.658;2023-04-22T08:58:23;97398.50;;;12.94;47.70
42727;BME280;28372;56.832;60.658;2023-04-22T09:00:50;97395.78;;;12.90;47.28
42727;BME280;28372;56.832;60.658;2023-04-22T09:03:19;97399.34;;;12.76;49.25
42727;BME280;28372;56.832;60.658;2023-04-22T09:05:50;97396.22;;;12.85;49.58
42727;BME280;28372;56.832;60.658;2023-04-22T09:08:19;97391.94;;;12.84;49.09
42727;BME280;28372;56.832;60.658;2023-04-22T09:10:47;97393.16;;;12.79;50.29
42727;BME280;28372;56.832;60.658;2023-04-22T09:13:15;97396.28;;;12.71;51.27
42727;BME280;28372;56.832;60.658;2023-04-22T09:15:44;97388.91;;;12.71;51.35
42727;BME280;28372;56.832;60.658;2023-04-22T09:18:16;97393.16;;;12.79;55.95
42727;BME280;28372;56.832;60.658;2023-04-22T09:20:46;97395.09;;;12.72;55.73
42727;BME280;28372;56.832;60.658;2023-04-22T09:23:14;97397.53;;;12.51;58.78
42727;BME280;28372;56.832;60.658;2023-04-22T09:25:44;97387.41;;;12.59;61.40
42727;BME280;28372;56.832;60.658;2023-04-22T09:28:16;97392.06;;;12.55;61.75
42727;BME280;28372;56.832;60.658;2023-04-22T09:30:46;97380.53;;;12.40;61.92
42727;BME280;28372;56.832;60.658;2023-04-22T09:33:14;97374.72;;;12.38;62.61
42727;BME280;28372;56.832;60.658;2023-04-22T09:35:43;97380.13;;;12.42;60.28
42727;BME280;28372;56.832;60.658;2023-04-22T09:38:11;97370.09;;;12.24;62.27
42727;BME280;28372;56.832;60.658;2023-04-22T09:40:43;97380.94;;;12.35;64.38
42727;BME280;28372;56.832;60.658;2023-04-22T09:43:10;97373.63;;;12.18;62.09
42727;BME280;28372;56.832;60.658;2023-04-22T09:45:40;97370.50;;;12.23;63.79
42727;BME280;28372;56.832;60.658;2023-04-22T09:48:16;97367.75;;;12.30;64.85
42727;BME280;28372;56.832;60.658;2023-04-22T09:50:49;97366.22;;;12.36;62.69
42727;BME280;28372;56.832;60.658;2023-04-22T09:53:20;97354.56;;;12.43;65.81
42727;BME280;28372;56.832;60.658;2023-04-22T09:55:50;97363.88;;;12.38;63.60
42727;BME280;28372;56.832;60.658;2023-04-22T09:58:19;97358.41;;;12.53;62.56
42727;BME280;28372;56.832;60.658;2023-04-22T10:00:50;97359.09;;;12.67;62.38
42727;BME280;28372;56.832;60.658;2023-04-22T10:03:18;97353.63;;;12.75;58.86
42727;BME280;28372;56.832;60.658;2023-04-22T10:05:46;97353.56;;;12.82;56.36
42727;BME280;28372;56.832;60.658;2023-04-22T10:08:15;97352.78;;;12.85;54.33
42727;BME280;28372;56.832;60.658;2023-04-22T10:10:43;97358.06;;;13.07;53.97
42727;BME280;28372;56.832;60.658;2023-04-22T10:13:11;97352.63;;;13.10;53.42
42727;BME280;28372;56.832;60.658;2023-04-22T10:15:46;97349.06;;;13.17;52.84
42727;BME280;28372;56.832;60.658;2023-04-22T10:18:18;97345.13;;;13.25;53.15
42727;BME280;28372;56.832;60.658;2023-04-22T10:20:48;97338.13;;;13.28;52.73
42727;BME280;28372;56.832;60.658;2023-04-22T10:23:21;97338.50;;;13.37;53.14
42727;BME280;28372;56.832;60.658;2023-04-22T10:25:57;97339.19;;;13.45;53.32
42727;BME280;28372;56.832;60.658;2023-04-22T10:28:27;97334.16;;;13.43;52.77
42727;BME280;28372;56.832;60.658;2023-04-22T10:30:56;97332.19;;;13.44;52.46
42727;BME280;28372;56.832;60.658;2023-04-22T10:36:20;97343.50;;;13.39;51.98
42727;BME280;28372;56.832;60.658;2023-04-22T10:41:34;97330.84;;;13.17;53.72
42727;BME280;28372;56.832;60.658;2023-04-22T10:44:06;97323.84;;;13.20;53.94
42727;BME280;28372;56.832;60.658;2023-04-22T10:49:13;97334.38;;;13.14;54.61
42727;BME280;28372;56.832;60.658;2023-04-22T10:51:55;97317.69;;;13.16;55.49
42727;BME280;28372;56.832;60.658;2023-04-22T10:57:07;97320.53;;;12.98;55.64
42727;BME280;28372;56.832;60.658;2023-04-22T10:59:51;97327.81;;;13.08;54.61
42727;BME280;28372;56.832;60.658;2023-04-22T11:02:20;97315.91;;;12.95;54.19
42727;BME280;28372;56.832;60.658;2023-04-22T11:04:49;97305.06;;;12.91;54.59
42727;BME280;28372;56.832;60.658;2023-04-22T11:09:50;97288.63;;;13.09;54.63
42727;BME280;28372;56.832;60.658;2023-04-22T11:15:05;97298.00;;;13.05;57.84
42727;BME280;28372;56.832;60.658;2023-04-22T11:17:33;97296.66;;;12.71;58.65
42727;BME280;28372;56.832;60.658;2023-04-22T11:20:03;97288.22;;;12.58;60.84
42727;BME280;28372;56.832;60.658;2023-04-22T11:22:42;97291.31;;;12.60;62.44
42727;BME280;28372;56.832;60.658;2023-04-22T11:25:10;97282.09;;;12.40;62.41
42727;BME280;28372;56.832;60.658;2023-04-22T11:27:40;97294.09;;;12.46;63.83
42727;BME280;28372;56.832;60.658;2023-04-22T11:32:43;97285.56;;;12.44;64.32
42727;BME280;28372;56.832;60.658;2023-04-22T11:35:14;97285.59;;;12.40;64.31
42727;BME280;28372;56.832;60.658;2023-04-22T11:37:47;97276.69;;;12.40;68.09
42727;BME280;28372;56.832;60.658;2023-04-22T11:40:19;97277.78;;;12.53;67.82
42727;BME280;28372;56.832;60.658;2023-04-22T11:43:01;97283.22;;;12.53;65.70
42727;BME280;28372;56.832;60.658;2023-04-22T11:45:31;97280.59;;;12.31;67.00
42727;BME280;28372;56.832;60.658;2023-04-22T11:47:59;97267.03;;;12.31;69.28
42727;BME280;28372;56.832;60.658;2023-04-22T11:50:30;97273.63;;;12.34;69.69
42727;BME280;28372;56.832;60.658;2023-04-22T11:53:01;97272.41;;;12.46;68.50
42727;BME280;28372;56.832;60.658;2023-04-22T11:55:31;97278.34;;;12.19;71.47
42727;BME280;28372;56.832;60.658;2023-04-22T11:58:04;97272.56;;;12.06;72.69
42727;BME280;28372;56.832;60.658;2023-04-22T12:00:43;97273.34;;;12.14;79.24
42727;BME280;28372;56.832;60.658;2023-04-22T12:03:16;97278.13;;;11.70;77.74
42727;BME280;28372;56.832;60.658;2023-04-22T12:05:51;97275.03;;;11.54;83.91
42727;BME280;28372;56.832;60.658;2023-04-22T12:08:25;97269.66;;;11.43;85.80
42727;BME280;28372;56.832;60.658;2023-04-22T12:10:54;97265.41;;;11.27;89.35
42727;BME280;28372;56.832;60.658;2023-04-22T12:13:28;97275.88;;;11.04;97.25
42727;BME280;28372;56.832;60.658;2023-04-22T12:15:58;97260.78;;;11.06;99.47
42727;BME280;28372;56.832;60.658;2023-04-22T12:18:35;97258.06;;;11.13;100.00
42727;BME280;28372;56.832;60.658;2023-04-22T12:26:15;97254.22;;;11.00;99.24
42727;BME280;28372;56.832;60.658;2023-04-22T12:28:44;97243.03;;;10.87;100.00
42727;BME280;28372;56.832;60.658;2023-04-22T12:31:13;97246.09;;;10.64;100.00
42727;BME280;28372;56.832;60.658;2023-04-22T12:33:41;97232.97;;;10.66;100.00
42727;BME280;28372;56.832;60.658;2023-04-22T12:36:09;97236.44;;;10.59;100.00
42727;BME280;28372;56.832;60.658;2023-04-22T12:38:37;97227.97;;;10.72;100.00
42727;BME280;28372;56.832;60.658;2023-04-22T12:41:06;97230.28;;;10.80;100.00
42727;BME280;28372;56.832;60.658;2023-04-22T12:43:33;97229.09;;;10.96;100.00
42727;BME280;28372;56.832;60.658;2023-04-22T12:46:06;97227.19;;;10.93;100.00
42727;BME280;28372;56.832;60.658;2023-04-22T12:48:34;97215.56;;;10.74;100.00
42727;BME280;28372;56.832;60.658;2023-04-22T12:51:04;97217.13;;;10.68;100.00
42727;BME280;28372;56.832;60.658;2023-04-22T12:53:33;97216.34;;;10.53;100.00
42727;BME280;28372;56.832;60.658;2023-04-22T12:56:00;97212.03;;;10.23;100.00
42727;BME280;28372;56.832;60.658;2023-04-22T12:58:28;97206.69;;;10.52;100.00
42727;BME280;28372;56.832;60.658;2023-04-22T13:00:56;97198.59;;;10.59;100.00
42727;BME280;28372;56.832;60.658;2023-04-22T13:03:23;97198.19;;;10.61;100.00
42727;BME280;28372;56.832;60.658;2023-04-22T13:05:51;97199.34;;;10.38;100.00
42727;BME280;28372;56.832;60.658;2023-04-22T13:08:19;97194.31;;;10.40;100.00
42727;BME280;28372;56.832;60.658;2023-04-22T13:10:47;97199.72;;;10.40;100.00
42727;BME280;28372;56.832;60.658;2023-04-22T13:13:14;97191.22;;;10.42;100.00
42727;BME280;28372;56.832;60.658;2023-04-22T13:15:48;97186.59;;;10.42;100.00
42727;BME280;28372;56.832;60.658;2023-04-22T13:18:21;97193.06;;;10.12;100.00
42727;BME280;28372;56.832;60.658;2023-04-22T13:20:49;97174.56;;;10.07;100.00
42727;BME280;28372;56.832;60.658;2023-04-22T13:23:17;97177.25;;;10.11;100.00
42727;BME280;28372;56.832;60.658;2023-04-22T13:25:55;97171.53;;;10.38;100.00